Accueil
METAR-TAF:

METAR-TAF

Aéroports :

Aéroport de Quimper Bretagne, Pluguffan

Quimper, France

latitude: 47-58N, longitude: 004-10W, altitude: 92 m

Observation

Le bulletin a été fait il y a 30 minutes, à 07:00 UTC
Vent 6 kt de sud-est
Température 13°C
Humidité 94%
Pression 1020 hPa
Visibilité: 7000 m
Ciel couvert à une hauteur de 600 ft

METAR: LFRQ 160700Z AUTO 14006KT 7000 OVC006 13/12 Q1020 TEMPO 1500 BR OVC003

Heure: 08:30 (07:30 UTC)

Prévision

Le bulletin a été fait il y a 2 heures et 30 minutes, à 05:00 UTC
Prévision valable du 16 à 06 UTC au 17 à 06 UTC
Vent 5 kt de est/sud-est
Visibilité: 7000 m
Ciel couvert à une hauteur de 1000 ft
Probabilité 30% :
Temporairement
du 16 à 06 UTC au 16 à 10 UTC
Visibilité: 1500 m
Ciel couvert à une hauteur de 300 ft
brume

TAF: LFRQ 160500Z 1606/1706 12005KT 7000 OVC010 PROB30 TEMPO 1606/1610 1500 BR OVC003

Observations et prévisions météorologiques de plus de 4000 aéroports (messages METAR et TAF).

Les stations disponibles sont représentées par des disques jaunes et rouges sur la carte.

Passer la souris dessus pour voir le nom de la station.

Cliquer dessus pour voir les observations et prévisions météorologiques.

Pour changer de carte: cliquez sur les boutons verts avec une croix noire pour zoomer, sur le bouton vert avec un tiret pour effectuer un zoom arrière, ou sur les flèches vertes pour les cartes adjacentes.


METAR-TAF: